createdAt,value
2022-10-12T00:02:13.922Z,15.06
2022-10-12T00:05:00.862Z,15.07
2022-10-12T00:07:47.830Z,15.07
2022-10-12T00:10:34.833Z,15.18
2022-10-12T00:13:15.197Z,15.24
2022-10-12T00:16:01.837Z,15.23
2022-10-12T00:18:42.589Z,15.27
2022-10-12T00:21:30.866Z,15.30
2022-10-12T00:24:17.819Z,15.36
2022-10-12T00:27:04.876Z,15.32
2022-10-12T00:29:44.853Z,15.24
2022-10-12T00:32:25.292Z,15.20
2022-10-12T00:35:11.822Z,15.19
2022-10-12T00:38:02.796Z,15.11
2022-10-12T00:40:42.994Z,15.18
2022-10-12T00:43:40.774Z,15.18
2022-10-12T00:46:35.980Z,15.13
2022-10-12T00:49:30.806Z,15.08
2022-10-12T00:52:22.799Z,15.11
2022-10-12T00:55:04.443Z,15.07
2022-10-12T00:57:50.794Z,15.06
2022-10-12T01:00:32.676Z,15.08
2022-10-12T01:03:22.800Z,15.00
2022-10-12T01:06:10.785Z,14.95
2022-10-12T01:08:52.459Z,14.88
2022-10-12T01:11:39.761Z,14.79
2022-10-12T01:14:19.871Z,14.71
2022-10-12T01:17:20.951Z,14.74
2022-10-12T01:20:22.859Z,14.70
2022-10-12T01:23:49.728Z,14.67
2022-10-12T01:27:06.724Z,14.72
2022-10-12T01:30:11.738Z,14.66
2022-10-12T01:33:01.798Z,14.68
2022-10-12T01:36:14.758Z,14.67
2022-10-12T01:39:21.727Z,14.68
2022-10-12T01:42:14.766Z,14.60
2022-10-12T01:44:54.825Z,14.64
2022-10-12T01:47:44.725Z,14.67
2022-10-12T01:50:26.824Z,14.75
2022-10-12T01:53:30.737Z,14.75
2022-10-12T01:56:16.846Z,14.75
2022-10-12T01:59:14.689Z,14.81
2022-10-12T02:02:03.840Z,14.79
2022-10-12T02:05:03.682Z,14.83
2022-10-12T02:07:50.725Z,14.83
2022-10-12T02:10:38.481Z,14.90
2022-10-12T02:13:28.692Z,14.90
2022-10-12T02:16:15.332Z,14.94
2022-10-12T02:19:07.702Z,14.94
2022-10-12T02:21:56.687Z,14.93
2022-10-12T02:24:48.670Z,14.99
2022-10-12T02:27:29.957Z,15.03
2022-10-12T02:30:21.109Z,15.01
2022-10-12T02:33:13.396Z,15.01
2022-10-12T02:36:11.630Z,14.95
2022-10-12T02:39:11.807Z,15.00
2022-10-12T02:41:55.683Z,14.97
2022-10-12T02:44:46.654Z,14.91
2022-10-12T02:47:35.893Z,14.95
2022-10-12T02:50:24.669Z,14.85
2022-10-12T02:53:05.835Z,14.77
2022-10-12T02:55:56.638Z,14.78
2022-10-12T02:58:43.626Z,14.69
2022-10-12T03:01:24.079Z,14.75
2022-10-12T03:04:10.598Z,14.81
2022-10-12T03:25:30.425Z,14.11
2022-10-12T03:28:10.839Z,14.28
2022-10-12T03:30:58.421Z,14.40
2022-10-12T03:33:38.840Z,14.53
2022-10-12T03:36:25.462Z,14.66
2022-10-12T03:39:05.869Z,14.72
2022-10-12T03:41:52.414Z,14.72
2022-10-12T03:44:32.796Z,14.83
2022-10-12T03:47:19.409Z,14.78
2022-10-12T03:50:06.427Z,14.85
2022-10-12T03:52:53.382Z,14.79
2022-10-12T03:55:33.994Z,14.83
2022-10-12T03:58:20.355Z,14.91
2022-10-12T04:01:07.457Z,14.98
2022-10-12T04:03:54.396Z,15.03
2022-10-12T04:06:34.773Z,15.08
2022-10-12T04:09:21.353Z,15.02
2022-10-12T04:12:01.976Z,15.06
2022-10-12T04:14:48.367Z,14.98
2022-10-12T04:17:28.845Z,14.89
2022-10-12T04:20:15.364Z,14.73
2022-10-12T04:23:02.386Z,14.63
2022-10-12T04:25:49.442Z,14.64
2022-10-12T04:28:29.412Z,14.68
2022-10-12T04:31:09.737Z,14.58
2022-10-12T04:33:56.382Z,14.56
2022-10-12T04:36:36.735Z,14.60
2022-10-12T04:39:23.358Z,14.71
2022-10-12T04:42:03.923Z,14.58
2022-10-12T04:44:50.294Z,14.56
2022-10-12T04:47:30.691Z,14.57
2022-10-12T04:50:18.327Z,14.58
2022-10-12T04:53:05.423Z,14.61
2022-10-12T04:55:45.345Z,14.65
2022-10-12T04:58:25.750Z,14.76
2022-10-12T05:01:12.393Z,14.85
2022-10-12T05:03:59.267Z,14.97
2022-10-12T05:06:39.473Z,15.06
2022-10-12T05:09:19.320Z,15.10
2022-10-12T05:11:59.694Z,15.20
2022-10-12T05:14:46.317Z,15.26
2022-10-12T05:17:26.698Z,15.43
2022-10-12T05:20:13.275Z,15.42
2022-10-12T05:22:53.692Z,15.51
2022-10-12T05:25:42.322Z,15.62
2022-10-12T05:28:29.372Z,15.65
2022-10-12T05:31:09.427Z,15.69
2022-10-12T05:33:56.292Z,15.67
2022-10-12T05:36:36.380Z,15.58
2022-10-12T05:39:23.268Z,15.60
2022-10-12T05:42:03.340Z,15.53
2022-10-12T05:44:50.280Z,15.72
2022-10-12T05:47:37.497Z,15.74
2022-10-12T05:50:17.693Z,15.84
2022-10-12T05:53:04.239Z,15.97
2022-10-12T05:55:56.174Z,16.14
2022-10-12T05:58:44.272Z,16.16
2022-10-12T06:01:24.693Z,16.39
2022-10-12T06:04:11.253Z,16.54
2022-10-12T06:06:51.670Z,16.66
2022-10-12T06:09:38.229Z,16.64
2022-10-12T06:12:18.673Z,16.98
2022-10-12T06:15:05.258Z,17.33
2022-10-12T06:17:52.250Z,17.58
2022-10-12T06:20:39.234Z,17.89
2022-10-12T06:23:34.245Z,17.76
2022-10-12T06:26:14.666Z,18.28
2022-10-12T06:29:01.215Z,18.40
2022-10-12T06:31:51.671Z,18.07
2022-10-12T06:34:31.305Z,18.15
2022-10-12T06:37:44.300Z,18.43
2022-10-12T06:40:18.346Z,18.50
2022-10-12T06:43:09.241Z,18.54
2022-10-12T06:45:49.565Z,18.64
2022-10-12T06:48:36.193Z,19.05
2022-10-12T06:51:16.309Z,19.24
2022-10-12T06:54:03.232Z,19.55
2022-10-12T06:56:54.287Z,19.12
2022-10-12T06:59:36.636Z,19.53
2022-10-12T07:02:26.204Z,19.61
2022-10-12T07:05:14.220Z,19.63
2022-10-12T07:08:01.153Z,19.47
2022-10-12T07:10:48.183Z,19.67
2022-10-12T07:13:28.310Z,19.75
2022-10-12T07:16:15.161Z,19.72
2022-10-12T07:19:02.143Z,19.60
2022-10-12T07:21:49.150Z,20.57
2022-10-12T07:24:43.204Z,20.86
2022-10-12T07:27:23.691Z,21.21
2022-10-12T07:30:10.162Z,20.60
2022-10-12T07:32:50.689Z,20.68
2022-10-12T07:35:51.481Z,20.61
2022-10-12T07:38:44.144Z,20.29
2022-10-12T07:41:24.263Z,20.24
2022-10-12T07:44:11.138Z,20.70
2022-10-12T07:46:51.329Z,20.54
2022-10-12T07:49:38.165Z,20.59
2022-10-12T07:52:25.154Z,20.85
2022-10-12T07:55:12.109Z,19.77
2022-10-12T07:57:59.095Z,19.93
2022-10-12T08:00:47.102Z,19.89
2022-10-12T08:03:34.117Z,19.56
2022-10-12T08:06:24.088Z,19.43
2022-10-12T08:09:05.212Z,19.44
2022-10-12T08:11:52.130Z,19.26
2022-10-12T08:14:39.129Z,18.68
2022-10-12T08:17:19.487Z,19.08
2022-10-12T08:20:06.066Z,19.01
2022-10-12T08:22:53.086Z,19.30
2022-10-12T08:25:40.156Z,19.27
2022-10-12T08:28:20.147Z,19.19
2022-10-12T08:31:00.747Z,19.18
2022-10-12T08:33:47.096Z,19.59
2022-10-12T08:36:28.107Z,19.76
2022-10-12T08:39:15.102Z,19.73
2022-10-12T08:42:17.338Z,20.05
2022-10-12T08:45:36.083Z,20.35
2022-10-12T08:48:34.339Z,21.43
2022-10-12T08:51:26.049Z,22.45
2022-10-12T08:54:21.100Z,22.49
2022-10-12T08:57:09.070Z,22.69
2022-10-12T08:59:56.208Z,22.44
2022-10-12T09:02:58.082Z,23.12
2022-10-12T09:06:00.345Z,23.06
2022-10-12T09:09:02.070Z,23.45
2022-10-12T09:12:15.886Z,23.85
2022-10-12T09:15:07.098Z,24.78
2022-10-12T09:17:55.687Z,26.34
2022-10-12T09:20:47.068Z,26.74
2022-10-12T09:23:45.053Z,28.04
2022-10-12T09:26:37.578Z,27.16
2022-10-12T09:29:33.019Z,29.10
2022-10-12T09:32:47.052Z,29.13
2022-10-12T09:35:34.033Z,30.31
2022-10-12T09:38:14.521Z,30.09
2022-10-12T09:41:01.021Z,30.21
2022-10-12T09:43:41.810Z,29.75
2022-10-12T09:46:30.008Z,27.27
2022-10-12T09:49:17.053Z,29.11
2022-10-12T09:52:06.126Z,28.45
2022-10-12T09:55:03.591Z,28.45
2022-10-12T09:57:49.130Z,27.70
2022-10-12T10:00:39.016Z,25.03
2022-10-12T10:03:31.757Z,25.08
2022-10-12T10:06:19.014Z,27.23
2022-10-12T10:09:05.968Z,29.92
2022-10-12T10:11:46.432Z,30.00
2022-10-12T10:14:33.017Z,29.09
2022-10-12T10:17:23.986Z,27.94
2022-10-12T10:20:11.980Z,26.67
2022-10-12T10:22:58.996Z,26.89
2022-10-12T10:25:46.116Z,24.81
2022-10-12T10:28:31.978Z,24.60
2022-10-12T10:31:21.580Z,22.53
2022-10-12T10:34:28.964Z,21.58
2022-10-12T10:37:26.971Z,20.94
2022-10-12T10:40:09.041Z,20.83
2022-10-12T10:42:59.958Z,20.61
2022-10-12T10:45:51.078Z,20.88
2022-10-12T10:48:54.962Z,21.06
2022-10-12T10:52:07.977Z,21.24
2022-10-12T10:54:55.958Z,20.97
2022-10-12T10:57:42.954Z,21.01
2022-10-12T11:00:38.522Z,21.12
2022-10-12T11:03:49.936Z,21.69
2022-10-12T11:06:38.927Z,21.28
2022-10-12T11:09:40.937Z,20.95
2022-10-12T11:12:36.242Z,20.21
2022-10-12T11:15:34.043Z,20.06
2022-10-12T11:18:25.886Z,19.85
2022-10-12T11:21:18.916Z,19.88
2022-10-12T11:24:22.903Z,19.96
2022-10-12T11:27:52.796Z,19.78
2022-10-12T11:30:47.916Z,19.87
2022-10-12T11:33:35.260Z,20.20
2022-10-12T11:36:26.902Z,20.45
2022-10-12T11:39:22.626Z,20.52
2022-10-12T11:42:21.751Z,20.54
2022-10-12T11:45:08.883Z,19.95
2022-10-12T11:47:54.692Z,19.54
2022-10-12T11:50:52.882Z,19.83
2022-10-12T11:53:33.226Z,19.38
2022-10-12T11:56:40.961Z,19.57
2022-10-12T11:59:52.859Z,19.55
2022-10-12T12:02:50.012Z,18.80
2022-10-12T12:05:39.892Z,18.84
2022-10-12T12:08:55.889Z,19.07
2022-10-12T12:11:42.846Z,19.25
2022-10-12T12:14:28.938Z,19.12
2022-10-12T12:17:29.309Z,19.14
2022-10-12T12:20:53.922Z,19.31
2022-10-12T12:23:48.847Z,19.43
2022-10-12T12:26:43.835Z,19.19
2022-10-12T12:29:34.842Z,18.88
2022-10-12T12:32:21.841Z,19.17
2022-10-12T12:35:02.350Z,18.87
2022-10-12T12:37:48.854Z,18.70
2022-10-12T12:40:29.719Z,18.88
2022-10-12T12:43:47.950Z,18.82
2022-10-12T12:47:06.005Z,18.63
2022-10-12T12:50:14.827Z,18.70
2022-10-12T12:53:21.091Z,18.55
2022-10-12T12:56:31.833Z,18.39
2022-10-12T12:59:29.040Z,18.15
2022-10-12T13:02:26.815Z,18.40
2022-10-12T13:05:10.193Z,18.47
2022-10-12T13:08:15.799Z,18.49
2022-10-12T13:11:17.764Z,18.63
2022-10-12T13:14:18.909Z,18.52
2022-10-12T13:17:44.079Z,18.60
2022-10-12T13:20:38.785Z,18.25
2022-10-12T13:23:32.787Z,18.43
2022-10-12T13:26:25.912Z,18.05
2022-10-12T13:29:08.744Z,17.92
2022-10-12T13:31:59.773Z,17.86
2022-10-12T13:34:49.883Z,17.93
2022-10-12T13:37:38.759Z,17.92
2022-10-12T13:40:42.959Z,18.01
2022-10-12T13:43:34.758Z,17.93
2022-10-12T13:46:16.882Z,17.92
2022-10-12T13:49:04.777Z,17.92
2022-10-12T13:51:44.915Z,17.97
2022-10-12T13:54:32.736Z,17.99
2022-10-12T13:57:38.759Z,17.81
2022-10-12T14:00:25.230Z,17.62
2022-10-12T14:03:17.736Z,17.38
2022-10-12T14:06:04.792Z,17.32
2022-10-12T14:08:44.799Z,17.13
2022-10-12T14:11:33.753Z,17.03
2022-10-12T14:14:36.695Z,17.05
2022-10-12T14:17:26.874Z,17.03
2022-10-12T14:20:43.740Z,16.98
2022-10-12T14:23:29.804Z,16.98
2022-10-12T14:26:30.682Z,17.04
2022-10-12T14:29:33.130Z,17.02
2022-10-12T14:32:19.723Z,17.04
2022-10-12T14:35:35.818Z,17.04
2022-10-12T14:38:48.706Z,16.99
2022-10-12T14:41:56.786Z,16.94
2022-10-12T14:44:52.678Z,17.00
2022-10-12T14:47:39.885Z,17.11
2022-10-12T14:50:27.690Z,16.96
2022-10-12T14:53:22.680Z,16.79
2022-10-12T14:56:03.086Z,16.83
2022-10-12T14:58:49.726Z,16.87
2022-10-12T15:01:30.235Z,16.73
2022-10-12T15:04:16.688Z,16.75
2022-10-12T15:06:57.154Z,16.69
2022-10-12T15:09:43.665Z,16.64
2022-10-12T15:27:23.948Z,16.00
2022-10-12T15:30:04.871Z,16.10
2022-10-12T15:32:51.964Z,16.21
2022-10-12T15:35:34.948Z,16.28
2022-10-12T15:38:21.973Z,16.29
2022-10-12T15:41:09.967Z,16.28
2022-10-12T15:43:50.270Z,16.34
2022-10-12T15:46:36.957Z,16.34
2022-10-12T15:49:19.713Z,16.26
2022-10-12T15:52:01.076Z,16.31
2022-10-12T15:54:49.046Z,16.23
2022-10-12T15:57:29.081Z,16.21
2022-10-12T16:00:16.941Z,16.18
2022-10-12T16:03:03.976Z,16.10
2022-10-12T16:05:46.097Z,16.12
2022-10-12T16:08:32.944Z,16.12
2022-10-12T16:11:15.257Z,16.02
2022-10-12T16:14:02.902Z,16.08
2022-10-12T16:16:43.387Z,16.06
2022-10-12T16:19:29.907Z,16.03
2022-10-12T16:22:10.364Z,16.02
2022-10-12T16:24:57.019Z,16.02
2022-10-12T16:27:50.910Z,15.92
2022-10-12T16:30:37.900Z,15.92
2022-10-12T16:33:24.940Z,15.90
2022-10-12T16:36:22.953Z,15.84
2022-10-12T16:39:03.176Z,15.82
2022-10-12T16:41:49.930Z,15.85
2022-10-12T16:44:36.898Z,15.79
2022-10-12T16:47:23.922Z,15.78
2022-10-12T16:50:04.002Z,15.87
2022-10-12T16:52:50.893Z,15.81
2022-10-12T16:55:37.905Z,15.81
2022-10-12T16:58:24.859Z,15.72
2022-10-12T17:01:11.962Z,15.76
2022-10-12T17:03:55.298Z,15.78
2022-10-12T17:06:42.894Z,15.81
2022-10-12T17:09:23.313Z,15.81
2022-10-12T17:12:09.833Z,15.76
2022-10-12T17:14:56.901Z,15.66
2022-10-12T17:17:36.939Z,15.75
2022-10-12T17:20:23.871Z,15.77
2022-10-12T17:23:10.839Z,15.71
2022-10-12T17:26:05.836Z,15.73
2022-10-12T17:28:53.936Z,15.70
2022-10-12T17:31:42.088Z,15.68
2022-10-12T17:34:47.428Z,15.73
2022-10-12T17:37:36.064Z,15.66
2022-10-12T17:40:20.211Z,15.60
2022-10-12T17:43:21.553Z,15.54
2022-10-12T17:46:01.159Z,15.58
2022-10-12T17:48:47.838Z,15.52
2022-10-12T17:51:27.937Z,15.51
2022-10-12T17:54:15.820Z,15.47
2022-10-12T17:56:56.091Z,15.58
2022-10-12T17:59:42.851Z,15.52
2022-10-12T18:02:22.913Z,15.51
2022-10-12T18:05:09.813Z,15.46
2022-10-12T18:07:49.952Z,15.50
2022-10-12T18:10:36.798Z,15.52
2022-10-12T18:13:16.941Z,15.50
2022-10-12T18:16:03.816Z,15.42
2022-10-12T18:18:51.778Z,15.41
2022-10-12T18:21:33.191Z,15.36
2022-10-12T18:24:23.774Z,15.27
2022-10-12T18:27:10.898Z,15.30
2022-10-12T18:29:50.799Z,15.18
2022-10-12T18:32:38.804Z,15.18
2022-10-12T18:35:18.870Z,15.17
2022-10-12T18:38:05.807Z,15.16
2022-10-12T18:40:47.584Z,15.09
2022-10-12T18:43:34.788Z,15.11
2022-10-12T18:46:19.990Z,15.08
2022-10-12T18:49:11.756Z,14.99
2022-10-12T18:51:59.790Z,15.04
2022-10-12T18:54:40.252Z,15.01
2022-10-12T18:57:31.134Z,15.04
2022-10-12T19:00:12.442Z,15.03
2022-10-12T19:02:58.742Z,15.03
2022-10-12T19:05:39.170Z,15.09
2022-10-12T19:08:25.770Z,15.02
2022-10-12T19:11:08.527Z,15.05
2022-10-12T19:13:55.730Z,15.01
2022-10-12T19:16:36.181Z,15.05
2022-10-12T19:19:27.705Z,15.09
2022-10-12T19:22:08.117Z,15.02
2022-10-12T19:24:54.735Z,15.00
2022-10-12T19:27:48.704Z,14.97
2022-10-12T19:30:35.816Z,14.86
2022-10-12T19:33:15.674Z,14.84
2022-10-12T19:35:56.168Z,14.76
2022-10-12T19:38:42.709Z,14.81
2022-10-12T19:41:29.709Z,14.90
2022-10-12T19:44:17.704Z,14.79
2022-10-12T19:47:00.083Z,14.73
2022-10-12T19:49:46.717Z,14.81
2022-10-12T19:52:33.686Z,14.67
2022-10-12T19:55:13.922Z,14.66
2022-10-12T19:58:00.715Z,14.60
2022-10-12T20:00:49.699Z,14.68
2022-10-12T20:03:37.696Z,14.71
2022-10-12T20:06:17.781Z,14.64
2022-10-12T20:09:07.725Z,14.67
2022-10-12T20:11:54.665Z,14.68
2022-10-12T20:14:41.655Z,14.69
2022-10-12T20:17:28.651Z,14.68
2022-10-12T20:20:15.674Z,14.58
2022-10-12T20:22:55.797Z,14.63
2022-10-12T20:25:56.626Z,14.61
2022-10-12T20:28:44.726Z,14.62
2022-10-12T20:31:24.980Z,14.65
2022-10-12T20:34:11.629Z,14.66
2022-10-12T20:37:05.628Z,14.69
2022-10-12T20:39:49.400Z,14.67
2022-10-12T20:42:36.638Z,14.66
2022-10-12T20:45:23.641Z,14.75
2022-10-12T20:48:03.751Z,14.63
2022-10-12T20:50:50.594Z,14.65
2022-10-12T20:53:37.577Z,14.65
2022-10-12T20:56:18.305Z,14.66
2022-10-12T20:59:06.614Z,14.64
2022-10-12T21:01:53.610Z,14.62
2022-10-12T21:04:40.622Z,14.63
2022-10-12T21:07:27.566Z,14.68
2022-10-12T21:10:14.624Z,14.60
2022-10-12T21:13:01.602Z,14.57
2022-10-12T21:15:41.681Z,14.57
2022-10-12T21:18:28.599Z,14.64
2022-10-12T21:21:18.624Z,14.60
2022-10-12T21:24:07.571Z,14.59
2022-10-12T21:26:47.681Z,14.55
2022-10-12T21:29:34.549Z,14.54
2022-10-12T21:32:21.611Z,14.58
2022-10-12T21:35:08.609Z,14.51
2022-10-12T21:37:48.762Z,14.52
2022-10-12T21:40:35.588Z,14.52
2022-10-12T21:43:22.626Z,14.47
2022-10-12T21:46:10.680Z,14.46
2022-10-12T21:48:58.565Z,14.41
2022-10-12T21:51:45.552Z,14.41
2022-10-12T21:54:32.627Z,14.37
2022-10-12T21:57:19.509Z,14.38
2022-10-12T21:59:59.790Z,14.31
2022-10-12T22:02:52.506Z,14.27
2022-10-12T22:05:39.551Z,14.29
2022-10-12T22:08:26.507Z,14.29
2022-10-12T22:11:12.603Z,14.22
2022-10-12T22:14:04.531Z,14.16
2022-10-12T22:16:44.643Z,14.14
2022-10-12T22:19:31.497Z,14.15
2022-10-12T22:22:18.626Z,14.15
2022-10-12T22:25:05.620Z,14.03
2022-10-12T22:27:52.539Z,13.97
2022-10-12T22:30:42.501Z,14.02
2022-10-12T22:33:30.517Z,14.04
2022-10-12T22:36:12.602Z,13.98
2022-10-12T22:38:59.530Z,13.95
2022-10-12T22:41:39.579Z,13.96
2022-10-12T22:44:26.470Z,13.93
2022-10-12T22:47:06.659Z,13.97
2022-10-12T22:49:53.474Z,13.95
2022-10-12T22:52:33.666Z,13.91
2022-10-12T22:55:20.477Z,13.89
2022-10-12T22:58:00.557Z,13.83
2022-10-12T23:00:48.532Z,13.90
2022-10-12T23:03:28.532Z,13.89
2022-10-12T23:06:25.456Z,13.93
2022-10-12T23:09:12.446Z,13.94
2022-10-12T23:11:52.852Z,13.92
2022-10-12T23:14:39.475Z,13.90
2022-10-12T23:17:19.797Z,13.81
2022-10-12T23:20:06.475Z,13.81
2022-10-12T23:22:46.800Z,13.78
2022-10-12T23:25:33.409Z,13.74
2022-10-12T23:28:20.562Z,13.69
2022-10-12T23:31:00.451Z,13.70
2022-10-12T23:33:40.944Z,13.66
2022-10-12T23:36:30.438Z,13.65
2022-10-12T23:39:10.952Z,13.65
2022-10-12T23:41:57.396Z,13.65
2022-10-12T23:44:44.429Z,13.68
2022-10-12T23:47:31.387Z,13.56
2022-10-12T23:50:11.775Z,13.65
2022-10-12T23:52:58.382Z,13.55
2022-10-12T23:55:45.398Z,13.57
2022-10-12T23:58:33.406Z,13.55
